オクラホマシティ空港の過去48時間の天気

オクラホマシティ空港 (Oklahoma City, Will Rogers World Airport)

現在時刻: 5/25 21:59 CDT (5/26 02:59 UTC) 以下の時間は現地時間です。

過去48時間のMETAR気象情報
時間 風向 風速(m/s) 視程 気温(℃) 湿度(%) 気圧(hPa) 天気現象
25 21:26 西北西 6 10km以上 11.7 96 1010
25 20:52 西北西 4 10km以上 11.7 96 1009 弱い雨
25 20:41 西北西 6 10km以上 11.7 93 1009 弱い雨
25 19:52 西北西 5 10km以上 11.7 96 1008.6 弱い雨
25 19:21 西北西 7 10km以上 12.2 93 1009 弱い雨
25 18:58 北西 6 10km以上 12.2 93 1008 弱い雨
25 18:52 北西 6 10km以上 12.2 93 1008.2 弱い雨
25 17:52 西北西 7 10km以上 12.8 93 1007.9 弱い雨
25 17:38 西北西 6 10km以上 12.8 89 1008 弱い雨
25 17:14 西北西 7 10km以上 13.3 90 1008 弱い雨
25 17:09 西北西 4 10km以上 12.8 89 1008 弱い雨
25 16:52 西北西 6 10km以上 12.8 93 1007.7 弱い雨
25 15:52 西北西 6 10km以上 12.8 93 1007.8 弱い雨
25 15:04 西 5 10km以上 12.8 89 1008 弱い雨
25 14:52 西 7 10km以上 12.8 93 1007.8 弱い雨
25 14:31 西 5 10km以上 12.8 89 1008 弱い雨
25 13:52 西 7 10km以上 12.8 89 1008
25 12:52 西北西 6 10km以上 12.8 86 1008.2
25 11:52 西 4 10km以上 12.8 89 1008.1
25 11:25 西 5 10km以上 12.2 93 1008
25 11:13 西 6 10km以上 12.2 93 1008 弱い雨
25 10:57 西北西 5 10km以上 11.7 93 1008 弱い雨
25 10:17 北西 7 10km以上 11.7 93 1008
25 10:04 西北西 7 10km以上 12.2 93 1008
25 09:52 西北西 6 10km以上 12.2 93 1007.7 弱い雨
25 08:52 西北西 4 10km以上 11.1 100 1007.7 弱い雨 もや
25 08:03 北北西 8 8050m 11.1 97 1007 雨 もや
25 07:52 北西 7 6450m 11.1 97 1006.8 雨 もや
25 06:52 北西 7 8050m 11.7 96 1006.6 雨 もや
25 06:09 北西 5 8050m 11.7 96 1007 雨 もや
25 05:52 北北西 6 10km以上 11.7 96 1005.9 弱い雨
25 04:52 北北西 7 10km以上 12.8 93 1006 弱い雨
25 03:52 北西 6 10km以上 13.3 87 1006.8 弱い雨
25 02:52 6 10km以上 13.9 87 1005.4
25 01:52 北北西 5 10km以上 14.4 87 1007.3
25 00:52 北北西 4 10km以上 15 93 1007.7
24 23:52 北北西 4 10km以上 16.1 83 1008.5
24 22:52 不定 2 10km以上 15.6 100 1008.7
24 22:16 西 2 10km以上 15.6 100 1008
24 21:52 静穏 0 10km以上 15.6 100 1007.4
24 20:52 南南西 2 10km以上 15.6 100 1007.3
24 19:52 静穏 0 10km以上 16.1 97 1005.8
24 18:52 西南西 3 10km以上 16.1 97 1006.9 弱い雨
24 17:59 西南西 4 10km以上 17.2 84 1008
24 17:29 西 4 10km以上 17.2 84 1008
24 17:06 西南西 4 10km以上 17.8 81 1008
24 16:52 西南西 6 10km以上 17.8 84 1007.3
24 15:52 西南西 6 10km以上 17.2 87 1006.9
24 15:01 西南西 6 10km以上 17.2 90 1008
24 14:52 西南西 5 10km以上 17.2 90 1006.7
24 14:30 西南西 5 10km以上 16.7 93 1007
24 13:59 西南西 4 10km以上 16.7 93 1008
24 13:40 南南東 5 10km以上 16.7 93 1007
24 13:11 7 10km以上 16.7 93 1008 弱い雨
24 12:52 8 10km以上 16.7 93 1007.2
24 12:33 南南西 5 10km以上 16.7 96 1009 弱い雨
24 11:52 南南西 5 10km以上 16.1 97 1007.2 弱い雨
24 10:52 南南東 3 10km以上 16.1 97 1006.8
24 09:52 東南東 8 6450m 15 100 1006.5 雨 もや
24 08:52 北北西 5 8050m 14.4 100 1008.7 弱い雨 もや
24 08:39 西北西 5 4850m 14.4 100 1009 雨 もや
24 08:25 南南西 6 1600m 16.7 100 1009 雨 もや
24 07:52 南東 9 8050m 17.2 97 1007.2 もや
24 07:36 南東 8 4000m 16.7 100 1008 弱い雷雨 もや
24 07:10 南南東 7 1600m 16.7 100 1009 雷雨 もや
24 06:52 南南東 3 1600m 16.1 100 1008.5 強い雷雨 もや
24 06:50 南南東 3 1200m 16 100 1009 強い雷雨 もや
24 06:35 静穏 0 3200m 16.1 100 1009 強い雷雨 もや
24 06:02 東南東 4 4000m 16.7 96 1009 強い雷雨 もや
24 06:00 南東 5 4850m 16.7 96 1009 強い雷雨 もや
24 05:52 東南東 6 2400m 16.7 96 1008.5 雷雨 もや
24 05:42 東南東 7 1600m 16.7 96 1009 強い雷雨 もや
24 05:21 南東 5 3200m 16.1 100 1010 強い雷雨 もや
24 04:52 東南東 5 10km以上 16.1 100 1009.1 弱い雷雨
24 04:41 東南東 4 10km以上 16.1 97 1010 弱い雷雨
24 04:19 6 3200m 15.6 100 1010 弱い雨 もや
24 04:01 東南東 5 10km以上 15.6 100 1011
24 03:52 5 8050m 15.6 100 1009.9 弱い雨 もや
24 02:52 4 10km以上 15 100 1011.2
24 02:43 東北東 5 10km以上 15 96 1012
24 01:52 東北東 3 8050m 14.4 100 1012.9 もや
24 01:30 4 8050m 14.4 97 1013 もや
24 00:52 4 800m 13.9 100 1013.1 もや
23 23:52 3 800m 13.3 100 1013.9 もや
23 23:32 2 8050m 13.3 100 1015 もや
23 22:52 東南東 4 10km以上 12.8 100 1014.4 弱い雷雨
KOKC 260226Z 30011G18KT 10SM BKN012 BKN017 OVC023 12/11 A2981 RMK AO2 RAE12 P0000 T01170111
KOKC 260152Z 29008KT 10SM -RA SCT012 BKN022 OVC029 12/11 A2981 RMK AO2 RAE17B39 SLP090 P0001 T01170111
KOKC 260141Z 30012KT 10SM -RA SCT012 BKN022 OVC032 12/11 A2980 RMK AO2 RAE17B39 P0001 T01170106
KOKC 260052Z 30009KT 10SM -RA BKN012 BKN021 OVC065 12/11 A2979 RMK AO2 SLP086 P0001 T01170111
KOKC 260021Z 30013G19KT 10SM -RA BKN013 BKN020 OVC031 12/11 A2979 RMK AO2 P0000 T01220111
KOKC 252358Z 31012KT 10SM -RA BKN013 BKN021 OVC030 12/11 A2978 RMK AO2 P0000 T01220111
KOKC 252352Z 31011KT 10SM -RA SCT013 BKN020 OVC028 12/11 A2978 RMK AO2 SLP082 P0002 60009 T01220111 10133 20122 53003
KOKC 252252Z 30013KT 10SM -RA SCT014 BKN024 OVC070 13/12 A2978 RMK AO2 SLP079 P0002 T01280117
KOKC 252238Z 29012KT 10SM -RA FEW013 BKN019 OVC060 13/11 A2978 RMK AO2 P0002 T01280111
KOKC 252214Z 29013KT 10SM -RA FEW014 BKN032 OVC070 13/12 A2977 RMK AO2 P0001 T01330117
KOKC 252209Z 29008KT 10SM -RA FEW014 SCT023 OVC032 13/11 A2977 RMK AO2 P0001 T01280111
KOKC 252152Z 29011KT 10SM -RA FEW014 BKN029 OVC037 13/12 A2977 RMK AO2 SLP077 P0001 T01280117
KOKC 252052Z 29011KT 10SM -RA SCT014 BKN023 OVC040 13/12 A2977 RMK AO2 SLP078 P0002 60004 T01280117 56005
KOKC 252004Z 27009KT 10SM -RA SCT012 BKN026 OVC031 13/11 A2978 RMK AO2 P0001 T01280111
KOKC 251952Z 28013G18KT 10SM -RA BKN014 OVC025 13/12 A2978 RMK AO2 RAB04 SLP078 P0002 T01280117
KOKC 251931Z 28009KT 9SM -RA BKN014 BKN020 OVC024 13/11 A2978 RMK AO2 RAB04 P0001 T01280111
KOKC 251852Z 28013KT 10SM SCT015 OVC024 13/11 A2978 RMK AO2 SLP080 T01280111
KOKC 251752Z 29011KT 10SM SCT014 OVC023 13/11 A2979 RMK AO2 SLP082 60026 T01280106 10128 20111 52005
KOKC 251652Z 28008KT 10SM BKN011 BKN018 OVC025 13/11 A2979 RMK AO2 RAE24 SLP081 P0001 T01280111
KOKC 251625Z 28010KT 10SM FEW009 BKN014 OVC026 12/11 A2978 RMK AO2 RAE24 P0001 T01220111
KOKC 251613Z 28012KT 10SM -RA SCT012 BKN017 OVC075 12/11 A2978 RMK AO2 P0001 T01220111
KOKC 251557Z 30009KT 10SM -RA BKN011 BKN026 OVC080 12/11 A2978 RMK AO2 P0000 T01170106
KOKC 251517Z 32013KT 10SM SCT012 OVC070 12/11 A2976 RMK AO2 RAE04 P0000 T01170106
KOKC 251504Z 30013KT 10SM FEW009 BKN013 OVC070 12/11 A2977 RMK AO2 RAE04 P0000 T01220111
KOKC 251452Z 30011KT 10SM -RA SCT010 BKN017 OVC060 12/11 A2977 RMK AO2 SLP077 P0002 60025 T01220111 53001
KOKC 251352Z 29008KT 6SM -RA BR BKN010 OVC085 11/11 A2977 RMK AO2 SLP077 P0010 T01110111
KOKC 251303Z 33016KT 5SM RA BR SCT009 SCT055 OVC070 11/11 A2975 RMK AO2 P0003 T01110106
KOKC 251252Z 32014KT 4SM RA BR BKN009 BKN050 OVC070 11/11 A2975 RMK AO2 SLP068 P0013 T01110106
KOKC 251152Z 32013KT 5SM RA BR FEW009 BKN011 BKN015 12/11 A2974 RMK AO2 SLP066 P0012 60018 70079 T01170111 10150 20117 55003
KOKC 251109Z 32009KT 5SM RA BR BKN013 BKN022 OVC050 12/11 A2974 RMK AO2 P0002 T01170111
KOKC 251052Z 33011KT 10SM -RA SCT013 BKN050 OVC070 12/11 A2972 RMK AO2 SLP059 P0002 T01170111
KOKC 250952Z 34014KT 10SM -RA FEW015 OVC041 13/12 A2973 RMK AO2 SLP060 P0004 T01280117
KOKC 250852Z 32012KT 10SM -RA BKN036 OVC049 13/11 A2975 RMK AO2 RAB40 SLP068 P0000 60000 T01330111 55009
KOKC 250752Z 35011KT 10SM FEW032 OVC043 14/12 A2971 RMK AO2 RAB04E37 SLP054 P0000 T01390117
KOKC 250652Z 34009KT 10SM FEW010 BKN032 OVC041 14/12 A2977 RMK AO2 RAB07E25 SLP073 P0000 T01440122
KOKC 250552Z 34007KT 10SM FEW017 SCT024 OVC036 15/14 A2978 RMK AO2 SLP077 60000 T01500139 10161 20150 401780139 50003
KOKC 250452Z 34007KT 10SM FEW015 OVC036 16/13 A2980 RMK AO2 SLP085 T01610133
KOKC 250352Z VRB03KT 10SM FEW013 SCT018 OVC032 16/16 A2981 RMK AO2 SLP087 T01560156
KOKC 250316Z 27003KT 10SM FEW014 BKN029 OVC036 16/16 A2978 RMK AO2 T01560156
KOKC 250252Z 00000KT 10SM SCT026 BKN031 OVC046 16/16 A2977 RMK AO2 SLP074 60000 T01560156 53004
KOKC 250152Z 20003KT 10SM BKN026 BKN040 OVC150 16/16 A2977 RMK AO2 SLP073 T01560156
KOKC 250052Z 00000KT 10SM SCT036 SCT110 OVC150 16/16 A2973 RMK AO2 RAE03 SLP058 P0000 T01610156
KOKC 242352Z 25006KT 10SM -RA BKN035 OVC110 16/16 A2976 RMK AO2 RAB13 SLP069 P0001 60001 T01610156 10178 20161 58001
KOKC 242259Z 24008KT 10SM OVC030 17/14 A2977 RMK AO2 T01720144
KOKC 242229Z 26008KT 10SM FEW012 BKN028 OVC033 17/14 A2977 RMK AO2 T01720144
KOKC 242206Z 25008KT 10SM FEW010 SCT026 OVC031 18/14 A2977 RMK AO2 T01780144
KOKC 242152Z 25011KT 10SM FEW009 BKN025 OVC031 18/15 A2977 RMK AO2 SLP073 T01780150
KOKC 242052Z 25011KT 10SM FEW005 SCT015 OVC021 17/15 A2976 RMK AO2 SLP069 60000 T01720150 58001
KOKC 242001Z 24012KT 10SM OVC012 17/16 A2976 RMK AO2 T01720156
KOKC 241952Z 25010KT 10SM SCT010 BKN019 OVC130 17/16 A2975 RMK AO2 SLP067 T01720156
KOKC 241930Z 25010KT 10SM FEW007 SCT010 OVC017 17/16 A2975 RMK AO2 T01670156
KOKC 241859Z 25008G16KT 10SM BKN009 BKN015 BKN110 17/16 A2976 RMK AO2 T01670156
KOKC 241840Z 16009KT 10SM SCT009 SCT050 BKN110 17/16 A2974 RMK AO2 RAB05E35 P0000 T01670156
KOKC 241811Z 19014KT 10SM -RA SCT009 SCT049 BKN100 17/16 A2977 RMK AO2 RAB05 P0000 T01670156
KOKC 241752Z 18015G19KT 10SM BKN010 OVC130 17/16 A2976 RMK AO2 RAE01B29E41 SLP072 P0000 60060 T01670156 10172 20139 50007
KOKC 241733Z 20009KT 10SM -RA BKN013 OVC110 17/16 A2979 RMK AO2 RAE01B29 P0000 T01670161
KOKC 241652Z 20010KT 10SM -RA SCT008 BKN075 BKN110 OVC150 16/16 A2976 RMK AO2 RAB49 SLP072 P0000 T01610156
KOKC 241552Z 16006KT 10SM FEW005 SCT045 BKN090 OVC130 16/16 A2975 RMK AO2 RAE42 SLP068 P0007 T01610156
KOKC 241452Z 12015KT 4SM RA BR SCT010CB BKN080 OVC100 15/15 A2974 RMK AO2 SLP065 CB OHD-ALQDS MOV E P0014 60053 T01500150 58019
KOKC 241352Z 33009KT 5SM -RA BR SCT007CB BKN070 OVC090 14/14 A2980 RMK AO2 PK WND 21026/1318 WSHFT 1307 LTG DSNT N RAB16 SLP087 CB OHD-ALQDS MOV E P0028 T01440144
KOKC 241339Z 30010G17KT 3SM RA BR BKN007CB BKN012 OVC021 14/14 A2980 RMK AO2 PK WND 21026/1318 WSHFT 1307 LTG DSNT N RAB16 CB OHD-ALQDS MOV E P0026 T01440144
KOKC 241325Z 21012G26KT 1SM R35R/2600VP6000FT RA BR BKN007CB OVC012 17/17 A2980 RMK AO2 PK WND 21026/1318 WSHFT 1307 LTG DSNT N RAB16 PRESRR CB SW-NW MOV E P0021 T01670167
KOKC 241252Z 14018G26KT 5SM BR OVC007 17/17 A2976 RMK AO2 PK WND 14026/1249 LTG DSNT NW RAE40 TSE49 SLP072 P0011 T01720167
KOKC 241236Z 14016G24KT 2 1/2SM -TSRA BR OVC005CB 17/17 A2978 RMK AO2 OCNL LTGICCG OHD-ALQDS TS OHD-ALQDS MOV NE P0011 T01670167
KOKC 241210Z 15013KT 1SM R35R/P6000FT TSRA BR OVC005CB 17/17 A2979 RMK AO2 LTG DSNT NE OCNL LTGICCG OHD-ALQDS TS OHD-ALQDS MOV NE P0010 T01670167 $
KOKC 241152Z 15005KT 1SM R35R/6000VP6000FT +TSRA BR OVC004CB 16/16 A2980 RMK AO2 LTG DSNT N AND S SLP085 OCNL LTGICCG OHD-ALQDS TS OHD-ALQDS MOV NE P0066 60146 70249 T01610161 10167 20139 56014 $
KOKC 241150Z 15005KT 3/4SM R35R/6000VP6000FT +TSRA BR OVC004CB 16/16 A2980 RMK AO2 TWR VIS 3 LTG DSNT N OCNL LTGICCG OHD-ALQDS TS OHD-ALQDS MOV NE P0058 $
KOKC 241135Z 00000KT 2SM +TSRA BR BKN004 BKN013 OVC022CB 16/16 A2980 RMK AO2 TWR VIS 3 LTG DSNT N AND NE AND S FRQ LTGICCG OHD-ALQDS TS OHD-ALQDS MOV NE P0037 T01610161 $
KOKC 241102Z 12008KT 2 1/2SM +TSRA BR FEW022 BKN027CB OVC050 17/16 A2980 RMK AO2 LTG DSNT ALQDS FRQ LTGICCG OHD-ALQDS TS OHD-ALQDS MOV NE P0004 T01670161 $
KOKC 241100Z 13009KT 3SM +TSRA BR FEW007 BKN030CB OVC041 17/16 A2980 RMK AO2 LTG DSNT ALQDS FRQ LTGICCG OHD-ALQDS TS OHD-ALQDS MOV NE P0001 T01670161 $
KOKC 241052Z 11012KT 1 1/2SM TSRA BR FEW004 BKN030CB OVC060 17/16 A2980 RMK AO2 LTG DSNT ALQDS SLP085 FRQ LTGICCG OHD-ALQDS TS OHD-ALQDS MOV NE P0065 T01670161 $
KOKC 241042Z 11014KT 1SM R35R/5000VP6000FT +TSRA BR FEW004 OVC028CB 17/16 A2980 RMK AO2 LTG DSNT ALQDS FRQ LTGICCG OHD-ALQDS TS OHD-ALQDS MOV NE P0052 T01670161 $
KOKC 241021Z 13010KT 2SM R35R/6000VP6000FT +TSRA BR BKN007 BKN011 OVC014CB 16/16 A2982 RMK AO2 LTG DSNT SW FRQ LTGICCG OHD-ALQDS TS OHD-ALQDS MOV NE P0013 T01610161 $
KOKC 240952Z 11010KT 8SM -TSRA BKN006 OVC013CB 16/16 A2982 RMK AO2 LTG DSNT S AND SW RAE00B14 TSB40 SLP091 OCNL LTGIC OHD-S TS OHD-S MOV NE P0012 T01610161 $
KOKC 240941Z 11007KT 8SM -TSRA SCT008 OVC013CB 16/16 A2983 RMK AO2 LTG DSNT S AND SW RAE00B14 TSB40 OCNL LTGIC OHD-S TS OHD-S MOV NE P0012 T01610156 $
KOKC 240919Z 10012KT 2SM -RA BR FEW005 BKN018 OVC025 16/16 A2983 RMK AO2 LTG DSNT S AND SW RAE00B14 P0000 T01560156 $
KOKC 240901Z 11009KT 10SM FEW005 BKN014 OVC019 16/16 A2984 RMK AO2 LTG DSNT S AND SW RAE00 P0000 T01560156 $
KOKC 240852Z 10009KT 5SM -RA BR FEW005 BKN009 OVC015 16/16 A2984 RMK AO2 LTG DSNT S RAB23 SLP099 P0003 60003 T01560156 58031 $
KOKC 240752Z 08008KT 7SM OVC005 15/15 A2988 RMK AO2 RAB29E38 SLP112 P0000 T01500150 $
KOKC 240743Z 07009KT 9SM OVC005 15/14 A2988 RMK AO2 RAB29E38 P0000 T01500144 $
KOKC 240652Z 06006KT 5SM BR OVC004 14/14 A2993 RMK AO2 SLP129 T01440144 $
KOKC 240630Z 08007KT 5SM BR OVC004 14/14 A2992 RMK AO2 T01440139 $
KOKC 240552Z 08008KT 1/2SM R35R/P6000FT BR OVC002 14/14 A2993 RMK AO2 SFC VIS 2 SLP131 60024 T01390139 10139 20122 401390111 58008 $
KOKC 240452Z 08006KT 1/2SM R35R/P6000FT BR OVC002 13/13 A2995 RMK AO2 SFC VIS 2 LTG DSNT NE RAE0356 TSE26 SLP139 OCNL LTGIC DSNT NE CB DSNT NE MOV NE P0000 T01330133 $
KOKC 240432Z 08004KT 5SM BR OVC002 13/13 A2996 RMK AO2 LTG DSNT N AND NE RAE0356 TSE26 OCNL LTGIC DSNT NE CB DSNT NE MOV NE P0000 T01330133 $
KOKC 240352Z 11008KT 9SM -TSRA OVC003CB 13/13 A2996 RMK AO2 LTG DSNT N AND NW SLP144 OCNL LTGICCG W-N TS W-N MOV NE P0000 T01280128 $